createdAt,value
2023-05-22T00:02:45.523Z,99.90
2023-05-22T00:07:48.967Z,99.90
2023-05-22T00:12:52.288Z,99.90
2023-05-22T00:17:55.608Z,99.90
2023-05-22T00:23:01.522Z,99.90
2023-05-22T00:28:05.358Z,99.90
2023-05-22T00:33:08.711Z,99.90
2023-05-22T00:38:32.945Z,99.90
2023-05-22T00:43:36.659Z,99.90
2023-05-22T00:48:39.792Z,99.90
2023-05-22T00:53:44.767Z,99.90
2023-05-22T00:58:48.744Z,99.90
2023-05-22T01:03:54.330Z,99.90
2023-05-22T01:08:58.148Z,99.90
2023-05-22T01:14:23.024Z,99.90
2023-05-22T01:20:08.204Z,99.90
2023-05-22T01:25:21.564Z,99.90
2023-05-22T01:30:45.067Z,99.90
2023-05-22T01:35:56.006Z,99.90
2023-05-22T01:40:59.289Z,99.90
2023-05-22T01:46:02.679Z,99.90
2023-05-22T01:51:34.914Z,99.90
2023-05-22T01:56:56.198Z,99.90
2023-05-22T02:02:04.578Z,99.90
2023-05-22T02:07:12.146Z,99.90
2023-05-22T02:12:16.559Z,99.90
2023-05-22T02:17:20.679Z,99.90
2023-05-22T02:22:23.979Z,99.90
2023-05-22T02:27:27.553Z,99.90
2023-05-22T02:32:31.893Z,99.90
2023-05-22T02:37:35.553Z,99.90
2023-05-22T02:42:38.953Z,99.90
2023-05-22T02:47:42.377Z,99.90
2023-05-22T02:52:45.805Z,99.90
2023-05-22T02:57:49.089Z,99.90
2023-05-22T03:02:52.482Z,99.90
2023-05-22T03:07:56.353Z,99.90
2023-05-22T03:12:59.627Z,99.90
2023-05-22T03:18:03.535Z,99.90
2023-05-22T03:23:07.316Z,99.90
2023-05-22T03:28:10.886Z,99.90
2023-05-22T03:33:14.318Z,99.90
2023-05-22T03:38:17.733Z,99.90
2023-05-22T03:43:21.236Z,99.90
2023-05-22T03:48:24.426Z,99.90
2023-05-22T03:53:27.761Z,99.90
2023-05-22T03:58:31.061Z,99.90
2023-05-22T04:03:34.702Z,99.90
2023-05-22T04:08:38.041Z,99.90
2023-05-22T04:13:41.799Z,99.90
2023-05-22T04:18:45.083Z,99.90
2023-05-22T04:23:48.315Z,99.90
2023-05-22T04:28:51.732Z,99.90
2023-05-22T04:33:56.352Z,99.90
2023-05-22T04:39:00.765Z,99.90
2023-05-22T04:44:04.518Z,99.90
2023-05-22T04:49:08.865Z,99.90
2023-05-22T04:54:12.258Z,99.90
2023-05-22T04:59:16.838Z,99.90
2023-05-22T05:04:20.233Z,99.70
2023-05-22T05:09:23.997Z,99.50
2023-05-22T05:14:27.376Z,99.20
2023-05-22T05:19:30.963Z,99.20
2023-05-22T05:24:34.674Z,99.10
2023-05-22T05:29:37.955Z,99.90
2023-05-22T05:34:41.909Z,99.90
2023-05-22T05:39:45.336Z,99.90
2023-05-22T05:44:48.617Z,99.90
2023-05-22T05:49:52.077Z,99.90
2023-05-22T05:54:55.408Z,99.90
2023-05-22T05:59:59.354Z,99.90
2023-05-22T06:05:03.457Z,99.90
2023-05-22T06:10:07.768Z,99.90
2023-05-22T06:15:13.477Z,99.90
2023-05-22T06:20:17.164Z,99.90
2023-05-22T06:25:20.829Z,99.90
2023-05-22T06:30:43.371Z,99.90
2023-05-22T06:35:46.928Z,99.90
2023-05-22T06:40:50.213Z,99.90
2023-05-22T06:45:54.039Z,99.30
2023-05-22T06:50:57.527Z,99.40
2023-05-22T06:56:00.820Z,97.70
2023-05-22T07:01:04.614Z,97.20
2023-05-22T07:06:08.115Z,97.60
2023-05-22T07:11:11.473Z,96.90
2023-05-22T07:16:15.699Z,94.40
2023-05-22T07:21:18.918Z,95.10
2023-05-22T07:26:22.958Z,93.90
2023-05-22T07:31:26.434Z,93.00
2023-05-22T07:36:29.760Z,93.20
2023-05-22T07:41:33.210Z,92.80
2023-05-22T07:46:38.564Z,91.60
2023-05-22T07:51:42.137Z,90.90
2023-05-22T07:56:46.104Z,87.80
2023-05-22T08:01:49.404Z,87.60
2023-05-22T08:06:52.717Z,83.20
2023-05-22T08:11:56.366Z,77.30
2023-05-22T08:17:00.728Z,76.50
2023-05-22T08:22:04.104Z,74.40
2023-05-22T08:27:07.949Z,72.70
2023-05-22T08:32:11.370Z,71.40
2023-05-22T08:37:15.620Z,70.10
2023-05-22T08:42:18.928Z,67.80
2023-05-22T08:47:26.407Z,64.00
2023-05-22T08:52:44.521Z,68.30
2023-05-22T08:57:49.471Z,66.70
2023-05-22T09:02:53.606Z,64.10
2023-05-22T09:08:08.388Z,59.40
2023-05-22T09:13:30.874Z,59.20
2023-05-22T09:18:34.232Z,59.70
2023-05-22T09:23:38.330Z,59.30
2023-05-22T09:28:41.586Z,59.50
2023-05-22T09:33:45.646Z,58.00
2023-05-22T09:38:48.935Z,58.90
2023-05-22T09:43:52.499Z,58.70
2023-05-22T09:48:55.844Z,55.10
2023-05-22T09:54:04.410Z,55.60
2023-05-22T09:59:10.417Z,54.50
2023-05-22T10:04:15.560Z,54.50
2023-05-22T10:09:24.343Z,53.90
2023-05-22T10:14:29.042Z,54.10
2023-05-22T10:19:38.585Z,55.20
2023-05-22T10:24:51.280Z,52.90
2023-05-22T10:30:21.242Z,53.80
2023-05-22T10:35:53.767Z,52.30
2023-05-22T10:40:57.238Z,52.90
2023-05-22T10:46:04.771Z,52.10
2023-05-22T10:51:09.438Z,51.40
2023-05-22T10:56:17.233Z,51.70
2023-05-22T11:01:21.565Z,51.50
2023-05-22T11:06:41.378Z,52.00
2023-05-22T11:11:45.217Z,52.20
2023-05-22T11:16:48.540Z,51.80
2023-05-22T11:21:51.905Z,53.20
2023-05-22T11:27:08.502Z,52.70
2023-05-22T11:32:20.477Z,53.70
2023-05-22T11:37:24.394Z,51.40
2023-05-22T11:42:28.280Z,52.80
2023-05-22T11:47:32.263Z,52.20
2023-05-22T11:52:36.980Z,52.30
2023-05-22T11:57:40.448Z,51.60
2023-05-22T12:02:48.038Z,53.00
2023-05-22T12:07:51.969Z,49.50
2023-05-22T12:12:55.541Z,51.80
2023-05-22T12:17:59.214Z,51.30
2023-05-22T12:23:02.721Z,53.90
2023-05-22T12:28:07.841Z,51.60
2023-05-22T12:33:15.467Z,48.50
2023-05-22T12:38:22.641Z,49.40
2023-05-22T12:43:26.889Z,49.80
2023-05-22T12:48:30.438Z,49.10
2023-05-22T12:53:33.702Z,48.50
2023-05-22T12:58:37.021Z,48.80
2023-05-22T13:03:40.505Z,49.40
2023-05-22T13:08:44.268Z,49.60
2023-05-22T13:13:47.507Z,50.70
2023-05-22T13:18:51.297Z,48.50
2023-05-22T13:23:54.585Z,47.00
2023-05-22T13:28:58.022Z,49.00
2023-05-22T13:34:03.210Z,47.30
2023-05-22T13:39:07.194Z,47.50
2023-05-22T13:44:10.412Z,47.40
2023-05-22T13:49:13.767Z,47.80
2023-05-22T13:54:17.036Z,48.90
2023-05-22T13:59:20.541Z,49.00
2023-05-22T14:04:23.960Z,48.80
2023-05-22T14:09:27.637Z,47.70
2023-05-22T14:14:32.913Z,48.30
2023-05-22T14:19:36.669Z,48.10
2023-05-22T14:24:39.920Z,49.80
2023-05-22T14:29:43.869Z,50.30
2023-05-22T14:34:47.032Z,49.70
2023-05-22T14:39:50.514Z,47.50
2023-05-22T14:44:53.821Z,48.30
2023-05-22T14:50:06.174Z,46.70
2023-05-22T14:55:18.091Z,46.40
2023-05-22T15:00:21.416Z,45.50
2023-05-22T15:05:27.022Z,47.10
2023-05-22T15:10:30.290Z,49.40
2023-05-22T15:15:33.639Z,49.00
2023-05-22T15:20:36.933Z,44.80
2023-05-22T15:25:40.852Z,43.20
2023-05-22T15:30:44.365Z,42.90
2023-05-22T15:35:47.858Z,42.20
2023-05-22T15:40:51.560Z,42.40
2023-05-22T15:45:55.000Z,42.70
2023-05-22T15:50:59.716Z,43.20
2023-05-22T15:56:03.262Z,43.20
2023-05-22T16:01:08.125Z,44.80
2023-05-22T16:06:11.731Z,46.20
2023-05-22T16:11:15.229Z,45.80
2023-05-22T16:16:40.646Z,46.40
2023-05-22T16:22:06.615Z,47.10
2023-05-22T16:27:09.858Z,48.10
2023-05-22T16:32:13.174Z,49.60
2023-05-22T16:37:16.427Z,51.10
2023-05-22T16:42:20.140Z,49.40
2023-05-22T16:47:23.449Z,49.40
2023-05-22T16:52:27.188Z,50.20
2023-05-22T16:57:30.489Z,50.70
2023-05-22T17:02:34.359Z,50.20
2023-05-22T17:07:38.134Z,50.30
2023-05-22T17:12:41.957Z,50.50
2023-05-22T17:17:45.248Z,50.30
2023-05-22T17:22:48.653Z,51.40
2023-05-22T17:27:52.146Z,50.60
2023-05-22T17:32:57.227Z,52.30
2023-05-22T17:38:00.350Z,53.70
2023-05-22T17:43:04.136Z,55.30
2023-05-22T17:48:08.309Z,55.80
2023-05-22T17:53:13.774Z,58.10
2023-05-22T17:58:17.505Z,59.40
2023-05-22T18:03:21.034Z,59.30
2023-05-22T18:08:24.756Z,60.50
2023-05-22T18:13:28.156Z,61.00
2023-05-22T18:18:31.782Z,63.30
2023-05-22T18:23:35.366Z,66.00
2023-05-22T18:28:39.468Z,67.40
2023-05-22T18:33:45.274Z,68.40
2023-05-22T18:38:49.234Z,70.00
2023-05-22T18:43:52.514Z,71.60
2023-05-22T18:48:56.573Z,71.30
2023-05-22T18:53:59.978Z,72.90
2023-05-22T18:59:04.693Z,73.50
2023-05-22T19:04:08.964Z,75.30
2023-05-22T19:09:15.434Z,76.90
2023-05-22T19:14:20.722Z,76.10
2023-05-22T19:19:27.121Z,76.30
2023-05-22T19:24:30.868Z,77.50
2023-05-22T19:29:38.114Z,79.40
2023-05-22T19:34:43.689Z,79.50
2023-05-22T19:39:47.581Z,80.80
2023-05-22T19:44:52.028Z,82.50
2023-05-22T19:49:55.817Z,84.40
2023-05-22T19:55:00.213Z,86.60
2023-05-22T20:00:12.564Z,88.30
2023-05-22T20:05:16.547Z,90.40
2023-05-22T20:10:20.548Z,91.20
2023-05-22T20:15:26.008Z,92.20
2023-05-22T20:20:30.733Z,93.70
2023-05-22T20:25:40.457Z,94.00
2023-05-22T20:30:46.228Z,94.30
2023-05-22T20:35:53.000Z,94.40
2023-05-22T20:40:59.035Z,94.10
2023-05-22T20:46:02.782Z,94.50
2023-05-22T20:51:06.350Z,94.40
2023-05-22T20:56:09.705Z,94.30
2023-05-22T21:01:12.965Z,94.20
2023-05-22T21:06:16.531Z,94.30
2023-05-22T21:11:20.534Z,94.30
2023-05-22T21:16:24.775Z,94.40
2023-05-22T21:21:27.975Z,94.90
2023-05-22T21:26:31.444Z,95.10
2023-05-22T21:31:35.695Z,95.10
2023-05-22T21:36:39.532Z,95.40
2023-05-22T21:41:42.961Z,96.40
2023-05-22T21:46:46.488Z,96.20
2023-05-22T21:51:49.826Z,96.50
2023-05-22T21:56:53.429Z,96.70
2023-05-22T22:01:56.760Z,97.60
2023-05-22T22:07:00.378Z,98.30
2023-05-22T22:12:03.663Z,99.30
2023-05-22T22:17:08.062Z,99.90
2023-05-22T22:22:12.799Z,99.90
2023-05-22T22:27:16.064Z,99.90
2023-05-22T22:32:19.391Z,99.90
2023-05-22T22:37:22.857Z,99.90
2023-05-22T22:42:27.038Z,99.90
2023-05-22T22:47:30.429Z,99.90
2023-05-22T22:52:34.121Z,99.90
2023-05-22T22:57:38.873Z,99.90
2023-05-22T23:02:41.982Z,99.90
2023-05-22T23:07:46.924Z,99.90
2023-05-22T23:12:50.652Z,99.90
2023-05-22T23:17:54.293Z,99.90
2023-05-22T23:22:57.774Z,99.90
2023-05-22T23:28:01.018Z,99.90
2023-05-22T23:33:06.554Z,99.90
2023-05-22T23:38:09.746Z,99.90
2023-05-22T23:43:13.131Z,99.90
2023-05-22T23:48:16.942Z,99.90
2023-05-22T23:53:20.265Z,99.90
2023-05-22T23:58:23.533Z,99.90
